createdAt,value
2022-08-24T00:01:13.818Z,61.90
2022-08-24T00:03:42.100Z,61.25
2022-08-24T00:06:12.581Z,62.19
2022-08-24T00:08:40.637Z,61.45
2022-08-24T00:11:08.332Z,62.00
2022-08-24T00:13:36.674Z,61.55
2022-08-24T00:16:08.803Z,61.92
2022-08-24T00:18:36.244Z,62.10
2022-08-24T00:21:04.677Z,62.05
2022-08-24T00:23:31.799Z,61.94
2022-08-24T00:25:58.945Z,62.08
2022-08-24T00:28:26.571Z,62.12
2022-08-24T00:30:53.964Z,63.45
2022-08-24T00:33:21.132Z,64.28
2022-08-24T00:35:48.261Z,63.76
2022-08-24T00:38:15.651Z,64.50
2022-08-24T00:40:46.165Z,64.48
2022-08-24T00:43:21.256Z,65.46
2022-08-24T00:46:07.643Z,65.97
2022-08-24T00:48:39.978Z,64.99
2022-08-24T00:51:16.301Z,64.61
2022-08-24T00:53:49.005Z,64.56
2022-08-24T00:56:31.191Z,65.50
2022-08-24T00:59:05.774Z,65.88
2022-08-24T01:01:35.885Z,67.21
2022-08-24T01:04:05.366Z,68.36
2022-08-24T01:06:33.438Z,68.88
2022-08-24T01:09:00.850Z,68.46
2022-08-24T01:11:34.041Z,68.31
2022-08-24T01:14:03.218Z,67.23
2022-08-24T01:16:49.062Z,66.96
2022-08-24T01:19:31.864Z,67.50
2022-08-24T01:22:11.519Z,67.44
2022-08-24T01:24:39.536Z,66.99
2022-08-24T01:27:10.318Z,66.52
2022-08-24T01:29:41.291Z,66.61
2022-08-24T01:32:09.080Z,66.77
2022-08-24T01:34:36.693Z,66.70
2022-08-24T01:37:04.878Z,65.72
2022-08-24T01:39:44.714Z,67.23
2022-08-24T01:42:14.310Z,67.38
2022-08-24T01:44:44.301Z,67.39
2022-08-24T01:47:14.051Z,67.63
2022-08-24T01:49:44.079Z,70.44
2022-08-24T01:52:16.259Z,69.76
2022-08-24T01:54:43.799Z,70.23
2022-08-24T01:57:16.065Z,69.68
2022-08-24T01:59:44.304Z,69.19
2022-08-24T02:02:19.825Z,70.00
2022-08-24T02:04:47.109Z,69.00
2022-08-24T02:07:14.636Z,69.24
2022-08-24T02:09:41.889Z,69.09
2022-08-24T02:12:09.703Z,70.08
2022-08-24T02:14:37.324Z,69.31
2022-08-24T02:17:06.553Z,69.22
2022-08-24T02:19:34.707Z,68.57
2022-08-24T02:22:02.363Z,68.42
2022-08-24T02:24:29.806Z,69.56
2022-08-24T02:26:57.005Z,68.90
2022-08-24T02:29:24.439Z,69.08
2022-08-24T02:31:51.675Z,68.98
2022-08-24T02:34:18.906Z,69.90
2022-08-24T02:36:46.658Z,69.75
2022-08-24T02:39:13.855Z,69.53
2022-08-24T02:41:41.778Z,69.75
2022-08-24T02:44:09.159Z,71.48
2022-08-24T02:46:36.827Z,72.58
2022-08-24T02:49:11.437Z,73.39
2022-08-24T02:51:45.720Z,73.08
2022-08-24T02:54:21.695Z,73.76
2022-08-24T02:56:51.856Z,73.64
2022-08-24T02:59:20.032Z,72.96
2022-08-24T03:01:49.811Z,72.26
2022-08-24T03:04:18.022Z,74.10
2022-08-24T03:06:45.179Z,72.49
2022-08-24T03:09:12.442Z,73.27
2022-08-24T03:11:40.063Z,73.65
2022-08-24T03:14:13.197Z,72.02
2022-08-24T03:16:40.485Z,73.77
2022-08-24T03:19:07.725Z,72.84
2022-08-24T03:21:37.220Z,71.85
2022-08-24T03:24:05.434Z,72.29
2022-08-24T03:26:33.374Z,72.68
2022-08-24T03:29:00.637Z,72.39
2022-08-24T03:31:28.501Z,72.26
2022-08-24T03:33:55.793Z,71.53
2022-08-24T03:36:22.972Z,71.68
2022-08-24T03:38:50.537Z,71.62
2022-08-24T03:41:18.937Z,71.74
2022-08-24T03:43:46.161Z,72.16
2022-08-24T03:46:21.422Z,72.78
2022-08-24T03:48:49.864Z,72.58
2022-08-24T03:51:23.286Z,72.23
2022-08-24T03:53:52.095Z,73.23
2022-08-24T03:56:20.919Z,73.72
2022-08-24T03:58:49.220Z,72.82
2022-08-24T04:01:17.536Z,74.73
2022-08-24T04:03:46.982Z,76.16
2022-08-24T04:06:17.748Z,76.26
2022-08-24T04:08:46.265Z,75.23
2022-08-24T04:11:19.659Z,74.96
2022-08-24T04:13:48.003Z,73.77
2022-08-24T04:16:18.125Z,74.14
2022-08-24T04:18:47.484Z,74.34
2022-08-24T04:21:28.804Z,75.00
2022-08-24T04:23:57.379Z,75.00
2022-08-24T04:26:44.165Z,74.58
2022-08-24T04:29:16.753Z,74.48
2022-08-24T04:31:49.155Z,74.18
2022-08-24T04:34:18.310Z,75.00
2022-08-24T04:36:46.496Z,74.46
2022-08-24T04:39:15.003Z,74.99
2022-08-24T04:42:05.487Z,74.72
2022-08-24T04:44:37.821Z,75.25
2022-08-24T04:47:05.462Z,76.67
2022-08-24T04:49:33.458Z,75.53
2022-08-24T04:52:01.290Z,75.60
2022-08-24T04:54:28.982Z,74.75
2022-08-24T04:57:09.771Z,75.20
2022-08-24T04:59:40.742Z,74.51
2022-08-24T05:02:07.966Z,76.17
2022-08-24T05:04:37.355Z,75.82
2022-08-24T05:07:05.573Z,76.28
2022-08-24T05:09:33.430Z,75.89
2022-08-24T05:12:02.518Z,76.27
2022-08-24T05:14:35.119Z,74.96
2022-08-24T05:17:03.004Z,74.97
2022-08-24T05:19:31.440Z,76.46
2022-08-24T05:22:00.609Z,75.24
2022-08-24T05:24:28.414Z,78.26
2022-08-24T05:26:56.945Z,77.19
2022-08-24T05:29:26.947Z,76.53
2022-08-24T05:31:54.624Z,77.34
2022-08-24T05:34:23.824Z,78.40
2022-08-24T05:36:51.321Z,79.84
2022-08-24T05:39:30.972Z,76.80
2022-08-24T05:41:59.857Z,77.04
2022-08-24T05:44:31.506Z,74.70
2022-08-24T05:47:02.829Z,75.11
2022-08-24T05:49:31.105Z,73.14
2022-08-24T05:51:58.854Z,73.43
2022-08-24T05:54:26.839Z,71.13
2022-08-24T05:57:15.991Z,70.25
2022-08-24T06:00:02.102Z,69.45
2022-08-24T06:02:31.361Z,69.82
2022-08-24T06:04:58.581Z,71.45
2022-08-24T06:07:26.951Z,69.36
2022-08-24T06:10:06.311Z,69.22
2022-08-24T06:12:42.681Z,71.33
2022-08-24T06:15:11.367Z,70.54
2022-08-24T06:17:39.191Z,68.63
2022-08-24T06:20:07.459Z,69.17
2022-08-24T06:22:34.669Z,69.08
2022-08-24T06:25:20.497Z,68.77
2022-08-24T06:27:47.878Z,67.80
2022-08-24T06:30:15.173Z,68.34
2022-08-24T06:33:02.505Z,68.18
2022-08-24T06:35:46.837Z,67.69
2022-08-24T06:38:14.662Z,68.55
2022-08-24T06:40:42.823Z,69.85
2022-08-24T06:43:11.033Z,69.58
2022-08-24T06:46:00.927Z,69.77
2022-08-24T06:48:31.794Z,69.45
2022-08-24T06:51:00.004Z,70.59
2022-08-24T06:53:28.901Z,71.66
2022-08-24T06:55:59.119Z,71.13
2022-08-24T06:58:32.387Z,68.17
2022-08-24T07:01:09.991Z,66.67
2022-08-24T07:03:37.664Z,65.05
2022-08-24T07:06:20.829Z,65.33
2022-08-24T07:08:48.470Z,62.66
2022-08-24T07:11:18.042Z,61.66
2022-08-24T07:13:49.264Z,61.20
2022-08-24T07:16:21.133Z,60.94
2022-08-24T07:18:52.568Z,62.44
2022-08-24T07:21:21.567Z,61.88
2022-08-24T07:23:55.446Z,61.64
2022-08-24T07:26:25.503Z,62.33
2022-08-24T07:29:01.390Z,62.85
2022-08-24T07:31:37.795Z,62.20
2022-08-24T07:34:26.293Z,60.11
2022-08-24T07:36:54.660Z,59.18
2022-08-24T07:39:21.827Z,57.83
2022-08-24T07:42:11.505Z,58.66
2022-08-24T07:44:37.644Z,59.59
2022-08-24T07:47:27.165Z,59.46
2022-08-24T07:49:52.936Z,59.24
2022-08-24T07:52:20.471Z,59.38
2022-08-24T07:54:47.731Z,59.58
2022-08-24T07:57:15.706Z,59.64
2022-08-24T07:59:43.024Z,58.74
2022-08-24T08:02:11.691Z,52.28
2022-08-24T08:04:41.873Z,50.50
2022-08-24T08:07:09.745Z,48.49
2022-08-24T08:09:38.468Z,48.26
2022-08-24T08:12:07.117Z,46.83
2022-08-24T08:14:35.665Z,47.04
2022-08-24T08:17:02.883Z,45.97
2022-08-24T08:19:30.320Z,45.74
2022-08-24T08:22:16.303Z,44.90
2022-08-24T08:25:08.025Z,42.33
2022-08-24T08:27:36.176Z,42.57
2022-08-24T08:30:06.397Z,42.11
2022-08-24T08:32:34.493Z,41.76
2022-08-24T08:35:02.770Z,42.63
2022-08-24T08:37:31.955Z,40.97
2022-08-24T08:39:59.617Z,40.66
2022-08-24T08:42:47.996Z,40.87
2022-08-24T08:45:25.509Z,41.03
2022-08-24T08:48:29.604Z,40.07
2022-08-24T08:51:39.386Z,40.40
2022-08-24T08:54:44.392Z,40.52
2022-08-24T08:57:32.612Z,39.73
2022-08-24T09:00:15.738Z,39.06
2022-08-24T09:03:17.484Z,39.68
2022-08-24T09:06:18.835Z,39.48
2022-08-24T09:09:13.200Z,39.87
2022-08-24T09:12:13.322Z,39.40
2022-08-24T09:14:56.082Z,40.13
2022-08-24T09:17:41.337Z,40.31
2022-08-24T09:20:56.306Z,40.78
2022-08-24T09:23:32.779Z,39.82
2022-08-24T09:26:19.114Z,39.58
2022-08-24T09:29:16.497Z,38.75
2022-08-24T09:31:57.415Z,39.66
2022-08-24T09:34:51.362Z,38.80
2022-08-24T09:37:46.570Z,39.24
2022-08-24T09:40:59.362Z,38.55
2022-08-24T09:43:44.156Z,37.78
2022-08-24T09:46:27.345Z,38.20
2022-08-24T09:49:30.326Z,37.50
2022-08-24T09:52:18.557Z,36.56
2022-08-24T09:55:17.867Z,35.15
2022-08-24T09:58:00.562Z,36.35
2022-08-24T10:00:37.639Z,36.14
2022-08-24T10:03:17.318Z,36.05
2022-08-24T10:06:10.961Z,35.76
2022-08-24T10:09:24.316Z,34.82
2022-08-24T10:12:09.720Z,35.10
2022-08-24T10:14:49.040Z,34.69
2022-08-24T10:17:28.585Z,34.79
2022-08-24T10:20:16.720Z,34.98
2022-08-24T10:23:34.761Z,34.92
2022-08-24T10:26:14.205Z,34.51
2022-08-24T10:28:59.991Z,33.88
2022-08-24T10:31:35.473Z,34.27
2022-08-24T10:34:30.284Z,33.32
2022-08-24T10:37:19.991Z,33.34
2022-08-24T10:40:09.619Z,34.04
2022-08-24T10:43:03.078Z,33.39
2022-08-24T10:45:43.118Z,33.60
2022-08-24T10:48:52.596Z,33.08
2022-08-24T10:51:44.803Z,33.39
2022-08-24T10:54:13.227Z,33.45
2022-08-24T10:57:01.920Z,32.95
2022-08-24T10:59:33.709Z,33.13
2022-08-24T11:02:06.674Z,32.35
2022-08-24T11:04:40.601Z,32.31
2022-08-24T11:07:17.615Z,32.39
2022-08-24T11:09:53.245Z,32.57
2022-08-24T11:12:46.460Z,32.37
2022-08-24T11:15:28.104Z,31.99
2022-08-24T11:17:58.495Z,32.31
2022-08-24T11:20:47.205Z,32.70
2022-08-24T11:23:29.704Z,32.39
2022-08-24T11:26:01.908Z,32.67
2022-08-24T11:28:38.931Z,32.30
2022-08-24T11:31:12.598Z,32.53
2022-08-24T11:33:53.008Z,32.71
2022-08-24T11:36:25.829Z,32.75
2022-08-24T11:39:25.927Z,33.22
2022-08-24T11:41:59.295Z,33.03
2022-08-24T11:44:54.377Z,33.23
2022-08-24T11:47:39.548Z,32.94
2022-08-24T11:50:25.337Z,32.86
2022-08-24T11:53:30.169Z,32.09
2022-08-24T11:56:25.498Z,31.65
2022-08-24T11:59:11.006Z,31.32
2022-08-24T12:02:11.047Z,31.51
2022-08-24T12:05:05.531Z,31.34
2022-08-24T12:08:10.879Z,31.82
2022-08-24T12:11:01.970Z,30.39
2022-08-24T12:13:47.117Z,30.49
2022-08-24T12:16:35.544Z,31.11
2022-08-24T12:19:10.191Z,30.62
2022-08-24T12:21:40.900Z,30.69
2022-08-24T12:24:33.379Z,31.15
2022-08-24T12:27:18.693Z,31.16
2022-08-24T12:30:11.441Z,31.02
2022-08-24T12:32:49.835Z,30.47
2022-08-24T12:35:32.545Z,30.73
2022-08-24T12:38:16.273Z,30.61
2022-08-24T12:40:52.530Z,31.10
2022-08-24T12:43:25.637Z,30.27
2022-08-24T12:45:56.320Z,29.48
2022-08-24T12:48:34.816Z,29.76
2022-08-24T12:51:14.412Z,29.15
2022-08-24T12:54:04.780Z,28.89
2022-08-24T12:56:43.004Z,29.09
2022-08-24T12:59:21.004Z,28.94
2022-08-24T13:02:02.963Z,27.84
2022-08-24T13:04:48.533Z,28.63
2022-08-24T13:07:18.606Z,28.92
2022-08-24T13:10:06.389Z,29.14
2022-08-24T13:12:43.513Z,28.95
2022-08-24T13:15:22.777Z,29.36
2022-08-24T13:18:20.054Z,29.67
2022-08-24T13:20:50.169Z,29.70
2022-08-24T13:23:24.737Z,28.41
2022-08-24T13:26:28.777Z,29.75
2022-08-24T13:29:00.386Z,29.00
2022-08-24T13:31:38.391Z,27.75
2022-08-24T13:34:15.130Z,28.02
2022-08-24T13:37:14.325Z,27.84
2022-08-24T13:39:59.961Z,28.26
2022-08-24T13:42:45.094Z,28.35
2022-08-24T13:45:56.872Z,28.84
2022-08-24T13:48:34.583Z,28.27
2022-08-24T13:51:38.269Z,27.80
2022-08-24T13:54:34.352Z,28.58
2022-08-24T13:57:08.131Z,28.15
2022-08-24T14:00:13.017Z,28.26
2022-08-24T14:02:57.731Z,28.33
2022-08-24T14:05:47.356Z,27.34
2022-08-24T14:08:44.572Z,28.52
2022-08-24T14:11:35.372Z,27.87
2022-08-24T14:14:23.770Z,28.07
2022-08-24T14:17:35.963Z,28.15
2022-08-24T14:20:22.378Z,28.78
2022-08-24T14:23:00.781Z,28.60
2022-08-24T14:25:33.727Z,28.50
2022-08-24T14:28:01.298Z,28.57
2022-08-24T14:30:29.021Z,29.18
2022-08-24T14:32:59.604Z,28.70
2022-08-24T14:35:40.190Z,28.70
2022-08-24T14:38:20.241Z,25.01
2022-08-24T14:40:57.693Z,18.76
2022-08-24T14:43:34.931Z,18.56
2022-08-24T14:46:41.250Z,15.39
2022-08-24T14:49:18.180Z,13.00
2022-08-24T14:52:03.442Z,12.71
2022-08-24T14:54:59.060Z,12.54
2022-08-24T14:57:40.655Z,12.71
2022-08-24T15:00:24.441Z,14.12
2022-08-24T15:02:51.600Z,12.97
2022-08-24T15:05:36.223Z,13.13
2022-08-24T15:08:08.903Z,12.55
2022-08-24T15:10:58.813Z,12.33
2022-08-24T15:13:35.716Z,12.95
2022-08-24T15:16:23.016Z,12.44
2022-08-24T15:19:02.340Z,11.88
2022-08-24T15:21:56.913Z,10.21
2022-08-24T15:24:42.895Z,10.24
2022-08-24T15:27:42.124Z,10.96
2022-08-24T15:30:19.319Z,11.42
2022-08-24T15:32:54.090Z,10.86
2022-08-24T15:35:32.123Z,11.17
2022-08-24T15:38:16.546Z,10.20
2022-08-24T15:40:46.693Z,11.18
2022-08-24T15:43:14.381Z,10.55
2022-08-24T15:45:51.282Z,10.46
2022-08-24T15:48:24.469Z,10.40
2022-08-24T15:50:53.973Z,12.87
2022-08-24T15:53:33.168Z,12.73
2022-08-24T15:56:20.192Z,10.74
2022-08-24T15:58:48.825Z,10.31
2022-08-24T16:01:34.293Z,10.48
2022-08-24T16:04:04.870Z,10.87
2022-08-24T16:06:31.984Z,10.45
2022-08-24T16:09:12.186Z,9.78
2022-08-24T16:11:49.050Z,10.56
2022-08-24T16:14:29.909Z,10.69
2022-08-24T16:16:58.962Z,10.11
2022-08-24T16:19:33.213Z,9.80
2022-08-24T16:22:04.851Z,10.74
2022-08-24T16:24:31.952Z,10.52
2022-08-24T16:27:00.708Z,10.60
2022-08-24T16:29:37.886Z,10.22
2022-08-24T16:32:21.206Z,10.46
2022-08-24T16:35:10.945Z,11.13
2022-08-24T16:37:39.267Z,11.49
2022-08-24T16:40:08.462Z,11.61
2022-08-24T16:42:36.903Z,12.04
2022-08-24T16:45:05.809Z,11.68
2022-08-24T16:47:32.994Z,12.76
2022-08-24T16:50:00.132Z,12.34
2022-08-24T16:52:27.422Z,12.58
2022-08-24T16:54:54.703Z,12.47
2022-08-24T16:57:24.727Z,11.98
2022-08-24T16:59:52.611Z,12.52
2022-08-24T17:02:21.867Z,12.96
2022-08-24T17:04:49.910Z,12.87
2022-08-24T17:07:22.220Z,12.35
2022-08-24T17:09:49.503Z,13.31
2022-08-24T17:12:16.623Z,13.40
2022-08-24T17:14:44.337Z,14.05
2022-08-24T17:17:13.440Z,13.73
2022-08-24T17:19:43.381Z,14.34
2022-08-24T17:22:14.323Z,14.66
2022-08-24T17:24:44.921Z,15.74
2022-08-24T17:27:13.772Z,17.44
2022-08-24T17:29:43.448Z,18.09
2022-08-24T17:32:10.932Z,19.49
2022-08-24T17:34:39.074Z,20.91
2022-08-24T17:37:07.499Z,21.05
2022-08-24T17:39:34.854Z,21.35
2022-08-24T17:42:03.689Z,20.97
2022-08-24T17:44:33.420Z,21.44
2022-08-24T17:47:03.681Z,21.90
2022-08-24T17:49:32.149Z,22.16
2022-08-24T17:51:59.515Z,22.63
2022-08-24T17:54:28.327Z,22.75
2022-08-24T17:56:56.074Z,23.31
2022-08-24T17:59:29.568Z,24.26
2022-08-24T18:02:00.490Z,25.16
2022-08-24T18:04:30.447Z,25.43
2022-08-24T18:07:01.054Z,25.31
2022-08-24T18:09:35.157Z,25.96
2022-08-24T18:12:05.976Z,25.42
2022-08-24T18:14:34.525Z,26.07
2022-08-24T18:17:04.475Z,25.66
2022-08-24T18:19:33.511Z,26.08
2022-08-24T18:22:01.429Z,26.87
2022-08-24T18:24:32.338Z,26.64
2022-08-24T18:27:03.270Z,27.13
2022-08-24T18:29:40.858Z,27.91
2022-08-24T18:32:11.733Z,27.64
2022-08-24T18:34:40.160Z,27.38
2022-08-24T18:37:07.348Z,29.02
2022-08-24T18:39:35.209Z,29.25
2022-08-24T18:42:05.665Z,28.40
2022-08-24T18:44:33.319Z,29.18
2022-08-24T18:47:00.470Z,29.06
2022-08-24T18:49:28.068Z,28.89
2022-08-24T18:51:55.573Z,28.72
2022-08-24T18:54:25.949Z,28.90
2022-08-24T18:56:53.285Z,29.24
2022-08-24T18:59:21.149Z,29.74
2022-08-24T19:02:09.523Z,29.80
2022-08-24T19:04:39.708Z,31.67
2022-08-24T19:07:06.746Z,31.46
2022-08-24T19:09:34.570Z,31.43
2022-08-24T19:12:03.955Z,31.97
2022-08-24T19:14:31.561Z,32.03
2022-08-24T19:16:58.732Z,32.64
2022-08-24T19:19:25.952Z,31.81
2022-08-24T19:21:53.532Z,32.92
2022-08-24T19:24:24.991Z,32.68
2022-08-24T19:26:52.879Z,32.72
2022-08-24T19:29:38.813Z,32.83
2022-08-24T19:32:09.994Z,32.42
2022-08-24T19:34:41.294Z,33.06
2022-08-24T19:37:09.907Z,33.49
2022-08-24T19:39:36.955Z,33.67
2022-08-24T19:42:04.876Z,34.29
2022-08-24T19:44:51.794Z,33.78
2022-08-24T19:47:19.206Z,34.61
2022-08-24T19:49:46.312Z,33.99
2022-08-24T19:52:14.640Z,33.94
2022-08-24T19:54:44.581Z,34.17
2022-08-24T19:57:33.647Z,34.59
2022-08-24T20:00:08.311Z,34.74
2022-08-24T20:02:36.046Z,35.09
2022-08-24T20:05:03.228Z,34.85
2022-08-24T20:07:30.370Z,34.60
2022-08-24T20:09:57.760Z,34.88
2022-08-24T20:12:26.107Z,35.52
2022-08-24T20:14:53.159Z,35.83
2022-08-24T20:17:20.576Z,35.17
2022-08-24T20:19:53.161Z,35.83
2022-08-24T20:22:20.293Z,35.96
2022-08-24T20:24:48.066Z,35.85
2022-08-24T20:27:19.032Z,35.70
2022-08-24T20:29:46.184Z,35.52
2022-08-24T20:32:13.312Z,35.99
2022-08-24T20:34:40.937Z,35.62
2022-08-24T20:37:08.083Z,36.32
2022-08-24T20:39:35.287Z,35.79
2022-08-24T20:42:02.462Z,36.08
2022-08-24T20:44:29.616Z,35.91
2022-08-24T20:46:56.847Z,36.63
2022-08-24T20:49:26.933Z,35.93
2022-08-24T20:51:54.102Z,36.75
2022-08-24T20:54:21.241Z,36.42
2022-08-24T20:56:49.368Z,36.32
2022-08-24T20:59:16.969Z,36.74
2022-08-24T21:01:44.829Z,36.50
2022-08-24T21:04:12.187Z,36.88
2022-08-24T21:06:41.590Z,36.92
2022-08-24T21:09:10.396Z,37.09
2022-08-24T21:11:42.977Z,36.84
2022-08-24T21:14:10.071Z,37.19
2022-08-24T21:16:39.964Z,37.17
2022-08-24T21:19:12.012Z,37.86
2022-08-24T21:21:42.304Z,37.08
2022-08-24T21:24:10.002Z,37.08
2022-08-24T21:26:37.613Z,37.61
2022-08-24T21:29:06.609Z,37.41
2022-08-24T21:31:33.755Z,37.69
2022-08-24T21:34:19.107Z,37.67
2022-08-24T21:36:48.093Z,37.56
2022-08-24T21:39:15.289Z,38.25
2022-08-24T21:41:42.424Z,37.46
2022-08-24T21:44:09.602Z,37.74
2022-08-24T21:46:38.593Z,37.91
2022-08-24T21:49:06.684Z,38.43
2022-08-24T21:51:33.755Z,38.39
2022-08-24T21:54:01.419Z,37.98
2022-08-24T21:56:31.915Z,38.02
2022-08-24T21:58:59.442Z,38.13
2022-08-24T22:01:27.169Z,38.54
2022-08-24T22:03:54.992Z,38.74
2022-08-24T22:06:22.220Z,38.32
2022-08-24T22:08:49.912Z,38.14
2022-08-24T22:11:19.758Z,39.12
2022-08-24T22:13:47.625Z,38.56
2022-08-24T22:16:14.849Z,38.32
2022-08-24T22:18:42.046Z,38.31
2022-08-24T22:21:12.030Z,38.04
2022-08-24T22:23:40.858Z,39.01
2022-08-24T22:26:08.221Z,38.82
2022-08-24T22:28:37.963Z,38.69
2022-08-24T22:31:36.805Z,39.09
2022-08-24T22:34:15.364Z,39.36
2022-08-24T22:36:47.535Z,38.94
2022-08-24T22:39:14.833Z,39.02
2022-08-24T22:41:42.443Z,39.21
2022-08-24T22:44:21.560Z,38.94
2022-08-24T22:46:50.055Z,38.92
2022-08-24T22:49:18.930Z,39.03
2022-08-24T22:51:46.255Z,39.26
2022-08-24T22:54:13.971Z,39.19
2022-08-24T22:56:47.622Z,39.84
2022-08-24T22:59:27.036Z,39.84
2022-08-24T23:01:56.337Z,39.89
2022-08-24T23:04:30.231Z,39.69
2022-08-24T23:06:58.175Z,40.67
2022-08-24T23:09:25.354Z,41.26
2022-08-24T23:11:52.726Z,42.62
2022-08-24T23:14:21.235Z,41.38
2022-08-24T23:16:49.247Z,41.77
2022-08-24T23:19:41.127Z,41.43
2022-08-24T23:22:11.939Z,42.00
2022-08-24T23:24:40.528Z,41.53
2022-08-24T23:27:09.671Z,41.60
2022-08-24T23:29:37.315Z,42.14
2022-08-24T23:32:06.320Z,42.10
2022-08-24T23:34:34.318Z,43.16
2022-08-24T23:37:01.563Z,41.69
2022-08-24T23:39:28.941Z,41.52
2022-08-24T23:41:56.257Z,41.74
2022-08-24T23:44:25.970Z,42.71
2022-08-24T23:46:54.321Z,43.37
2022-08-24T23:49:23.076Z,43.68
2022-08-24T23:51:50.928Z,43.37
2022-08-24T23:54:21.529Z,43.05
2022-08-24T23:56:49.737Z,43.24
2022-08-24T23:59:19.833Z,43.20
